Time;durP1;ratioP1;P1;durP2;ratioP2;P2;SDS_P1;SDS_P2;PMS_P1;PMS_P2;Temp;Humidity;BMP_temperature;BMP_pressure;BME280_temperature;BME280_humidity;BME280_pressure;Samples;Min_cycle;Max_cycle;Signal;HPM_P1;HPM_P2
2024/02/12 00:00:23;;;;;;;8.18;5.35;;;;;;;7.00;97.03;96873.78;5065084;28;20486;-86
2024/02/12 00:02:49;;;;;;;8.45;4.82;;;;;;;6.23;97.06;96741.91;5067940;28;20046;-86
2024/02/12 00:05:14;;;;;;;7.50;5.03;;;;;;;7.04;96.55;96874.00;5071248;28;20032;-86
2024/02/12 00:07:40;;;;;;;8.75;4.65;;;;;;;7.06;96.04;96877.97;5072410;28;20195;-86
2024/02/12 00:10:12;;;;;;;9.75;4.45;;;;;;;7.07;96.38;96884.09;5071009;28;20426;-86
2024/02/12 00:12:42;;;;;;;9.40;5.03;;;;;;;6.76;97.59;96841.00;5070465;28;20097;-86
2024/02/12 00:15:08;;;;;;;6.63;4.95;;;;;;;7.12;96.55;96882.19;5066110;28;20498;-86
2024/02/12 00:17:37;;;;;;;10.05;5.53;;;;;;;6.56;96.93;96798.69;5070367;28;20042;-86
2024/02/12 00:20:06;;;;;;;8.02;5.38;;;;;;;7.05;96.34;96870.31;5086611;28;20035;-86
2024/02/12 00:22:35;;;;;;;6.97;5.20;;;;;;;7.08;96.62;96881.16;5084965;28;20028;-86
2024/02/12 00:25:03;;;;;;;8.50;4.65;;;;;;;6.94;96.37;96871.41;5064506;28;20121;-86
2024/02/12 00:27:30;;;;;;;9.65;5.30;;;;;;;7.08;96.40;96878.50;5073135;28;20275;-86
2024/02/12 00:29:55;;;;;;;6.88;5.07;;;;;;;7.04;96.81;96874.81;5052984;28;20036;-85
2024/02/12 00:32:22;;;;;;;9.85;5.00;;;;;;;7.07;96.33;96876.13;5037535;28;20093;-86
2024/02/12 00:34:47;;;;;;;9.45;5.15;;;;;;;7.10;95.75;96884.31;5070769;28;20036;-86
2024/02/12 00:37:13;;;;;;;6.53;4.50;;;;;;;6.94;96.35;96880.19;5057439;28;20126;-86
2024/02/12 00:39:38;;;;;;;6.68;4.60;;;;;;;7.06;96.97;96882.47;5074024;28;20039;-86
2024/02/12 00:42:08;;;;;;;6.53;4.45;;;;;;;7.03;96.60;96889.16;5072556;28;20040;-86
2024/02/12 00:44:37;;;;;;;8.60;4.82;;;;;;;7.09;95.62;96890.69;5040329;28;20085;-86
2024/02/12 00:47:03;;;;;;;12.68;5.53;;;;;;;6.96;96.23;96872.75;5085529;28;20031;-86
2024/02/12 00:49:29;;;;;;;8.32;4.68;;;;;;;6.95;96.06;96854.44;5070486;28;20024;-86
2024/02/12 00:51:55;;;;;;;7.13;4.65;;;;;;;7.10;95.25;96863.09;5087497;28;20451;-85
2024/02/12 00:54:21;;;;;;;6.15;4.30;;;;;;;7.08;95.57;96893.59;5055849;28;20024;-86
2024/02/12 00:56:47;;;;;;;6.53;3.95;;;;;;;7.16;95.83;96898.34;5053739;28;20509;-86
2024/02/12 00:59:17;;;;;;;9.00;4.72;;;;;;;6.99;96.02;96882.78;5072192;28;20427;-86
2024/02/12 01:01:45;;;;;;;8.10;4.22;;;;;;;7.05;95.68;96886.22;5069845;28;20028;-86
2024/02/12 01:04:11;;;;;;;7.30;4.32;;;;;;;6.96;96.38;96882.53;5070969;28;20028;-86
2024/02/12 01:06:38;;;;;;;8.07;5.20;;;;;;;6.56;96.80;96859.66;5074985;28;20035;-86
2024/02/12 01:09:05;;;;;;;8.55;4.32;;;;;;;6.71;96.60;96863.03;5054753;28;20115;-86
2024/02/12 01:11:31;;;;;;;6.93;3.80;;;;;;;6.89;95.70;96885.50;5055807;28;20128;-86
2024/02/12 01:13:57;;;;;;;10.23;4.65;;;;;;;7.14;96.37;96911.88;5069894;28;20503;-86
2024/02/12 01:16:24;;;;;;;7.28;4.28;;;;;;;7.00;95.56;96902.16;5063863;28;20029;-86
2024/02/12 01:18:51;;;;;;;8.13;4.38;;;;;;;7.10;95.38;96908.19;5051804;28;20029;-86
2024/02/12 01:21:17;;;;;;;6.57;4.35;;;;;;;6.97;94.57;96876.19;5067296;28;20574;-86
2024/02/12 01:23:44;;;;;;;7.63;5.20;;;;;;;7.26;94.15;96911.56;5066954;28;20032;-86
2024/02/12 01:26:12;;;;;;;7.63;5.00;;;;;;;7.23;94.58;96914.78;5073010;28;20390;-86
2024/02/12 01:28:38;;;;;;;12.20;6.10;;;;;;;7.26;94.82;96927.47;5055434;28;20119;-86
2024/02/12 01:31:07;;;;;;;6.20;4.68;;;;;;;6.57;94.44;96830.25;5074604;28;20518;-86
2024/02/12 01:33:34;;;;;;;10.52;5.25;;;;;;;6.92;95.58;96887.63;5072374;28;20037;-86
2024/02/12 01:36:00;;;;;;;6.53;4.05;;;;;;;6.96;95.20;96914.38;5052027;28;20051;-86
2024/02/12 01:38:26;;;;;;;7.40;4.20;;;;;;;6.83;96.48;96910.44;5066850;28;20545;-86
2024/02/12 01:40:52;;;;;;;5.95;4.90;;;;;;;6.82;96.88;96919.47;5054694;28;20116;-85
2024/02/12 01:43:31;;;;;;;7.50;4.28;;;;;;;6.77;97.46;96924.81;5055943;28;20111;-86
2024/02/12 01:46:00;;;;;;;9.38;5.68;;;;;;;6.64;96.81;96893.56;5073437;28;20107;-86
2024/02/12 01:48:32;;;;;;;6.82;4.68;;;;;;;6.86;96.85;96915.19;5073605;28;20177;-86
2024/02/12 01:51:00;;;;;;;8.98;4.55;;;;;;;6.62;96.78;96893.03;5070297;28;20035;-86
2024/02/12 01:53:26;;;;;;;8.95;4.85;;;;;;;6.73;97.19;96929.03;5091339;28;20020;-85
2024/02/12 01:55:51;;;;;;;9.73;5.82;;;;;;;6.78;96.97;96934.31;5053658;28;20052;-86
2024/02/12 01:58:18;;;;;;;7.45;4.95;;;;;;;6.81;96.99;96939.09;5070711;28;20033;-85
2024/02/12 02:00:48;;;;;;;7.07;5.10;;;;;;;6.54;97.40;96909.50;5067230;28;20038;-86
2024/02/12 02:03:17;;;;;;;7.10;5.03;;;;;;;6.56;97.42;96902.06;5058427;28;20032;-86
2024/02/12 02:05:44;;;;;;;10.25;5.80;;;;;;;6.63;97.81;96908.69;5060347;28;20051;-86
2024/02/12 02:08:11;;;;;;;9.07;6.10;;;;;;;6.76;97.22;96937.25;5077220;28;20020;-86
2024/02/12 02:10:36;;;;;;;5.53;4.90;;;;;;;6.76;97.04;96936.47;5074763;28;20044;-86
2024/02/12 02:13:03;;;;;;;8.18;5.78;;;;;;;6.36;97.06;96859.72;5056623;28;20043;-86
2024/02/12 02:15:28;;;;;;;7.82;5.50;;;;;;;6.92;96.45;96934.53;5054381;28;20089;-86
2024/02/12 02:17:54;;;;;;;7.38;5.25;;;;;;;6.95;95.88;96942.75;5091487;28;20020;-86
2024/02/12 02:20:23;;;;;;;7.63;6.32;;;;;;;6.64;95.89;96896.22;5060670;28;20024;-85
2024/02/12 02:22:50;;;;;;;8.02;5.47;;;;;;;6.87;95.72;96932.72;5061030;28;20030;-86
2024/02/12 02:25:16;;;;;;;9.45;5.88;;;;;;;6.97;96.24;96932.66;5058102;28;20032;-86
2024/02/12 02:27:41;;;;;;;10.45;7.15;;;;;;;6.43;95.80;96884.88;5062219;28;20042;-86
2024/02/12 02:30:10;;;;;;;8.20;5.70;;;;;;;6.71;96.22;96923.22;5044585;28;20115;-86
2024/02/12 02:32:37;;;;;;;8.98;5.75;;;;;;;6.76;95.76;96916.06;5056808;28;20305;-86
2024/02/12 02:35:04;;;;;;;9.15;5.40;;;;;;;6.95;95.53;96918.88;5078523;28;20038;-86
2024/02/12 02:37:30;;;;;;;9.75;6.10;;;;;;;7.06;95.32;96932.88;5073794;28;20390;-86
2024/02/12 02:39:55;;;;;;;13.30;6.05;;;;;;;7.05;94.75;96928.66;5091615;28;20028;-86
2024/02/12 02:42:21;;;;;;;7.93;5.22;;;;;;;7.08;94.95;96934.19;5075128;28;20031;-86
2024/02/12 02:44:48;;;;;;;7.25;5.15;;;;;;;7.12;94.37;96945.84;5040230;28;20098;-86
2024/02/12 02:47:13;;;;;;;7.47;4.95;;;;;;;6.80;94.74;96889.78;5071741;28;20096;-86
2024/02/12 02:49:41;;;;;;;6.45;4.93;;;;;;;7.20;94.49;96955.91;5079098;28;20024;-86
2024/02/12 02:52:07;;;;;;;8.63;5.38;;;;;;;6.94;94.41;96941.16;5075020;28;20048;-86
2024/02/12 02:54:33;;;;;;;7.18;4.80;;;;;;;7.11;95.05;96968.16;5052226;28;20032;-86
2024/02/12 02:56:59;;;;;;;7.35;5.35;;;;;;;7.02;96.23;96958.38;5058428;28;20506;-86
2024/02/12 02:59:25;;;;;;;6.93;5.05;;;;;;;6.43;96.66;96959.06;5075359;28;20028;-85
2024/02/12 03:01:51;;;;;;;11.25;5.80;;;;;;;6.86;97.76;96965.56;5083745;28;20020;-86
2024/02/12 03:04:16;;;;;;;10.90;5.88;;;;;;;7.00;95.44;96945.38;5092534;28;20036;-86
2024/02/12 03:06:42;;;;;;;9.32;4.78;;;;;;;7.10;95.57;96968.44;5054698;28;20055;-86
2024/02/12 03:09:08;;;;;;;9.63;5.60;;;;;;;7.18;95.07;96962.53;5075993;28;21625;-85
2024/02/12 03:11:33;;;;;;;8.85;5.50;;;;;;;7.02;94.95;96942.44;5064819;28;20079;-86
2024/02/12 03:13:59;;;;;;;7.43;4.75;;;;;;;7.03;94.77;96936.09;5042677;28;20380;-86
2024/02/12 03:16:25;;;;;;;5.68;4.57;;;;;;;6.87;95.45;96951.28;5071400;28;20584;-86
2024/02/12 03:18:52;;;;;;;5.53;4.38;;;;;;;6.73;95.64;96921.09;5084479;28;20028;-86
2024/02/12 03:21:22;;;;;;;8.30;4.93;;;;;;;6.72;96.79;96952.13;5072994;28;20055;-86
2024/02/12 03:23:47;;;;;;;9.45;5.15;;;;;;;6.72;97.05;96953.97;5056755;28;20038;-86
2024/02/12 03:26:16;;;;;;;11.07;6.03;;;;;;;6.75;97.15;96956.88;5091054;28;20035;-86
2024/02/12 03:28:43;;;;;;;8.77;5.53;;;;;;;6.70;96.61;96954.25;5087842;28;20116;-85
2024/02/12 03:31:09;;;;;;;10.05;6.10;;;;;;;6.15;97.41;96882.84;5085337;28;20127;-87
2024/02/12 03:33:36;;;;;;;10.10;5.65;;;;;;;6.62;97.74;96952.13;5070860;28;20471;-86
2024/02/12 03:36:02;;;;;;;12.57;5.75;;;;;;;6.72;97.40;96961.94;5074316;28;20062;-86
2024/02/12 03:38:27;;;;;;;11.18;7.07;;;;;;;6.58;97.66;96939.69;5052321;28;20060;-86
2024/02/12 03:40:53;;;;;;;13.50;6.20;;;;;;;6.57;97.88;96964.63;5059054;28;20051;-85
2024/02/12 03:43:22;;;;;;;10.60;6.20;;;;;;;6.51;98.15;96947.16;5066378;28;20447;-86
2024/02/12 03:45:48;;;;;;;9.90;6.72;;;;;;;6.53;97.02;96968.88;5090247;28;20032;-86
2024/02/12 04:01:54;;;;;;;13.50;6.93;;;;;;;6.38;97.41;96982.13;5091521;28;20038;-86
2024/02/12 04:04:20;;;;;;;9.50;6.75;;;;;;;6.53;97.72;96985.53;5060423;28;20023;-86
2024/02/12 04:06:45;;;;;;;9.25;6.07;;;;;;;6.26;97.19;96952.47;5064419;28;20031;-86
2024/02/12 04:09:12;;;;;;;11.70;6.47;;;;;;;6.59;97.25;96995.09;5093042;28;20103;-85
2024/02/12 04:11:41;;;;;;;12.73;7.10;;;;;;;6.45;96.72;96988.75;5093694;28;20501;-87
2024/02/12 04:14:09;;;;;;;8.38;6.32;;;;;;;6.18;96.54;96931.84;5072171;28;20036;-86
2024/02/12 04:16:37;;;;;;;13.05;6.07;;;;;;;6.51;96.76;97000.91;5043465;28;20032;-86
2024/02/12 04:19:03;;;;;;;10.63;6.15;;;;;;;5.84;97.23;96923.63;5051899;28;20105;-86
2024/02/12 04:21:32;;;;;;;7.47;5.80;;;;;;;6.30;98.12;96982.66;5038618;28;20501;-85
2024/02/12 04:24:00;;;;;;;8.98;7.05;;;;;;;6.40;97.88;97007.28;5050661;28;20081;-86
2024/02/12 04:26:26;;;;;;;10.98;6.28;;;;;;;6.45;97.87;97014.44;5051686;28;20024;-87
2024/02/12 04:28:53;;;;;;;7.35;6.20;;;;;;;6.51;97.46;97008.09;5053400;28;20089;-86
2024/02/12 04:31:18;;;;;;;8.45;6.15;;;;;;;6.50;96.84;97001.19;5056075;28;20112;-86
2024/02/12 04:33:44;;;;;;;9.60;5.82;;;;;;;5.99;96.84;96950.91;5089041;28;20055;-86
2024/02/12 04:36:09;;;;;;;12.98;6.60;;;;;;;6.03;98.26;96951.97;5037767;28;20486;-86
2024/02/12 04:38:35;;;;;;;12.07;6.28;;;;;;;6.49;96.93;97026.91;5055322;28;20172;-86
2024/02/12 04:41:01;;;;;;;11.05;6.35;;;;;;;5.98;97.20;96951.94;5089708;28;20159;-85
2024/02/12 04:43:27;;;;;;;10.25;5.85;;;;;;;6.57;97.37;97030.88;5054431;28;20071;-86
2024/02/12 04:45:52;;;;;;;8.27;6.32;;;;;;;6.52;97.78;97044.13;5084971;28;20032;-86
2024/02/12 04:48:18;;;;;;;10.25;5.82;;;;;;;6.41;97.86;97039.88;5044672;28;20157;-86
2024/02/12 04:50:45;;;;;;;9.18;6.00;;;;;;;6.47;97.20;97026.38;5055064;28;20111;-86
2024/02/12 04:53:11;;;;;;;10.20;5.82;;;;;;;6.49;97.00;97050.75;5043505;28;20024;-85
2024/02/12 04:55:36;;;;;;;6.85;6.00;;;;;;;6.27;97.36;97017.66;5066276;28;20042;-85
2024/02/12 04:58:02;;;;;;;9.95;6.03;;;;;;;6.51;97.55;97045.19;5071046;28;20099;-86
2024/02/12 05:00:30;;;;;;;12.73;7.85;;;;;;;6.54;97.14;97064.00;5050792;28;20029;-86
2024/02/12 05:02:55;;;;;;;7.35;6.07;;;;;;;6.52;96.99;97036.16;5073838;28;20376;-85
2024/02/12 05:05:21;;;;;;;8.05;6.75;;;;;;;6.78;96.29;97058.94;5056050;28;20032;-86
2024/02/12 05:07:47;;;;;;;9.57;6.53;;;;;;;6.57;95.98;97012.31;5044436;28;20102;-86
2024/02/12 05:10:12;;;;;;;8.38;5.38;;;;;;;6.47;95.96;97001.72;5056458;28;20028;-86
2024/02/12 05:12:38;;;;;;;11.10;5.93;;;;;;;6.67;95.66;97047.56;5053533;28;20051;-85
2024/02/12 05:15:05;;;;;;;11.82;5.95;;;;;;;6.70;96.88;97060.28;5053111;28;20126;-86
2024/02/12 05:17:52;;;;;;;7.55;5.50;;;;;;;6.57;96.35;97054.72;5054969;28;20110;-86
2024/02/12 05:23:00;;;;;;;10.13;6.90;;;;;;;6.26;97.70;97026.66;5075524;28;20558;-86
2024/02/12 05:25:25;;;;;;;9.35;6.60;;;;;;;6.16;97.95;97000.94;5045669;28;20047;-85
2024/02/12 05:27:51;;;;;;;12.20;6.25;;;;;;;6.21;97.80;97024.78;5052070;28;20394;-86
2024/02/12 05:30:16;;;;;;;7.57;6.45;;;;;;;5.81;98.36;96972.56;5043137;28;20068;-85
2024/02/12 05:32:41;;;;;;;8.07;5.88;;;;;;;6.24;98.19;97052.59;5067231;28;20040;-85
2024/02/12 05:35:09;;;;;;;8.85;6.38;;;;;;;6.51;98.52;97066.41;5083651;28;20072;-85
2024/02/12 05:37:35;;;;;;;6.05;5.47;;;;;;;6.43;98.17;97080.16;5067301;28;20032;-86
2024/02/12 05:40:00;;;;;;;10.10;6.53;;;;;;;6.50;97.19;97062.94;5055313;28;20678;-85
2024/02/12 05:42:27;;;;;;;11.13;6.95;;;;;;;6.51;97.49;97034.59;5043722;28;20032;-85
2024/02/12 05:44:52;;;;;;;10.43;5.97;;;;;;;6.60;97.10;97070.09;5054952;28;20055;-85
2024/02/12 05:47:18;;;;;;;10.23;6.50;;;;;;;6.10;96.39;96993.25;5077814;28;20499;-86
2024/02/12 05:49:44;;;;;;;9.70;6.55;;;;;;;6.37;96.64;97036.19;5045376;28;20024;-85
2024/02/12 05:52:09;;;;;;;9.52;6.03;;;;;;;5.89;96.88;96972.09;5041776;28;20487;-85
2024/02/12 05:54:35;;;;;;;10.48;5.95;;;;;;;6.13;96.29;96990.09;5061207;28;20024;-85
2024/02/12 05:57:04;;;;;;;11.13;6.65;;;;;;;6.70;96.22;97086.00;5043191;28;20032;-85
2024/02/12 05:59:32;;;;;;;11.70;6.47;;;;;;;6.77;95.66;97084.66;5073366;28;20024;-85
2024/02/12 06:02:00;;;;;;;9.98;7.15;;;;;;;6.60;96.68;97088.63;5092495;28;20024;-84
2024/02/12 06:04:25;;;;;;;10.00;6.03;;;;;;;6.54;97.15;97081.75;5081841;28;20038;-86
2024/02/12 06:06:51;;;;;;;9.05;6.03;;;;;;;6.33;97.22;97073.03;5079607;28;20019;-86
2024/02/12 06:09:19;;;;;;;10.48;7.28;;;;;;;6.32;97.20;97081.22;5062399;28;20517;-85
2024/02/12 06:11:48;;;;;;;11.00;6.25;;;;;;;6.56;96.93;97104.28;5098470;28;20475;-86
2024/02/12 06:14:13;;;;;;;9.40;6.90;;;;;;;6.56;96.54;97096.34;5062190;28;20032;-85
2024/02/12 06:16:42;;;;;;;11.60;5.93;;;;;;;5.91;96.77;97011.53;5057292;28;20028;-85
2024/02/12 06:19:07;;;;;;;8.13;6.50;;;;;;;6.35;96.69;97108.00;5093501;28;20042;-85
2024/02/12 06:21:35;;;;;;;8.45;5.50;;;;;;;5.83;97.80;97041.94;5065652;28;20043;-86
2024/02/12 06:24:05;;;;;;;7.63;6.82;;;;;;;6.40;97.77;97115.16;5079911;28;20050;-86
2024/02/12 06:26:33;;;;;;;9.52;6.40;;;;;;;6.38;97.21;97125.19;5064118;28;20490;-86
2024/02/12 06:28:59;;;;;;;10.80;6.90;;;;;;;6.40;97.24;97104.56;5080431;28;20558;-86
2024/02/12 06:31:24;;;;;;;12.15;6.10;;;;;;;6.33;97.15;97088.91;5042150;28;20070;-86
2024/02/12 06:33:50;;;;;;;8.73;6.78;;;;;;;6.38;97.04;97101.34;5062557;28;20037;-86
2024/02/12 06:36:16;;;;;;;7.63;5.75;;;;;;;6.42;97.24;97132.34;5067030;28;20039;-85
2024/02/12 06:38:41;;;;;;;13.82;6.53;;;;;;;6.62;96.47;97139.53;5064507;28;20498;-86
2024/02/12 06:41:07;;;;;;;9.65;5.97;;;;;;;6.18;97.37;97123.31;5063590;28;20036;-86
2024/02/12 06:43:33;;;;;;;7.30;5.25;;;;;;;6.43;97.53;97149.84;5078946;28;20024;-86
2024/02/12 06:46:00;;;;;;;8.60;5.70;;;;;;;6.61;97.22;97161.81;5062177;28;20379;-87
2024/02/12 06:48:26;;;;;;;9.77;5.30;;;;;;;6.39;97.26;97153.28;5045855;28;20025;-87
2024/02/12 06:50:51;;;;;;;8.88;5.20;;;;;;;5.78;97.40;97062.31;5055439;28;20543;-86
2024/02/12 06:53:24;;;;;;;10.02;6.45;;;;;;;6.02;97.38;97082.00;5042674;28;20040;-86
2024/02/12 06:55:50;;;;;;;8.77;5.00;;;;;;;6.11;97.02;97080.41;5091627;28;20031;-87
2024/02/12 06:58:18;;;;;;;8.73;5.95;;;;;;;6.12;97.40;97083.84;5045970;28;20462;-86
2024/02/12 07:00:43;;;;;;;7.75;5.70;;;;;;;5.79;96.92;97054.09;5100209;28;20051;-86
2024/02/12 07:03:09;;;;;;;7.47;5.72;;;;;;;5.85;96.95;97053.06;5063589;28;20031;-87
2024/02/12 07:05:34;;;;;;;9.57;5.70;;;;;;;6.62;96.25;97173.97;5057728;28;20041;-86
2024/02/12 07:07:59;;;;;;;9.15;5.20;;;;;;;5.98;97.03;97080.94;5081517;28;20067;-87
2024/02/12 07:10:25;;;;;;;7.88;5.68;;;;;;;6.45;96.65;97166.28;5046781;28;20036;-86
2024/02/12 07:12:50;;;;;;;8.55;6.07;;;;;;;6.21;96.57;97135.25;5076822;28;20063;-85
2024/02/12 07:15:16;;;;;;;7.25;5.70;;;;;;;6.59;96.72;97190.44;5058001;28;20193;-85
2024/02/12 07:17:42;;;;;;;9.45;5.53;;;;;;;5.98;96.07;97089.63;5061552;28;20174;-86
2024/02/12 07:20:12;;;;;;;9.20;5.85;;;;;;;6.54;96.84;97182.47;5063379;28;20518;-85
2024/02/12 07:22:37;;;;;;;7.75;5.40;;;;;;;6.62;97.36;97209.25;5059766;28;20036;-86
2024/02/12 07:25:04;;;;;;;7.30;5.45;;;;;;;6.67;96.80;97213.75;5063916;28;20040;-85
2024/02/12 07:27:29;;;;;;;13.85;6.15;;;;;;;6.29;98.16;97182.44;5045961;28;20049;-86
2024/02/12 07:29:55;;;;;;;8.07;5.68;;;;;;;6.65;97.27;97215.88;5098511;28;20022;-86
2024/02/12 07:32:21;;;;;;;11.98;6.05;;;;;;;6.56;97.00;97222.75;5062028;28;20372;-85
2024/02/12 07:34:47;;;;;;;9.05;6.93;;;;;;;6.37;97.81;97200.47;5099448;28;20053;-86
2024/02/12 07:37:13;;;;;;;9.95;5.13;;;;;;;6.44;98.00;97235.47;5091436;28;20028;-86
2024/02/12 07:39:39;;;;;;;8.10;5.65;;;;;;;6.00;98.34;97145.00;5076283;28;20028;-86
2024/02/12 07:42:11;;;;;;;11.15;6.50;;;;;;;6.62;97.47;97237.59;5081030;28;20028;-86
2024/02/12 07:44:37;;;;;;;7.15;6.05;;;;;;;6.73;97.43;97231.25;5063388;28;20505;-86
2024/02/12 07:47:05;;;;;;;9.48;6.28;;;;;;;6.63;96.72;97245.31;5063333;28;20051;-86
2024/02/12 07:49:34;;;;;;;7.90;5.82;;;;;;;6.35;97.30;97202.56;5080658;28;20024;-86
2024/02/12 07:52:00;;;;;;;11.10;7.50;;;;;;;6.15;96.54;97157.47;5080493;28;20035;-86
2024/02/12 07:54:28;;;;;;;10.00;6.95;;;;;;;6.26;96.76;97169.69;5049004;28;20028;-85
2024/02/12 07:56:54;;;;;;;10.90;7.07;;;;;;;6.69;96.93;97235.50;5102167;28;20039;-86
2024/02/12 07:59:20;;;;;;;13.60;8.25;;;;;;;6.48;97.40;97226.72;5098070;28;20039;-86
2024/02/12 08:01:45;;;;;;;11.00;6.85;;;;;;;6.59;97.15;97267.31;5065192;28;20036;-86
2024/02/12 08:04:10;;;;;;;12.65;7.65;;;;;;;6.32;97.06;97205.72;5057899;28;20028;-86
2024/02/12 08:06:36;;;;;;;11.85;8.18;;;;;;;6.69;97.00;97262.00;5059807;28;20036;-86
2024/02/12 08:09:01;;;;;;;10.88;7.88;;;;;;;6.07;96.49;97171.25;5048238;28;20042;-86
2024/02/12 08:11:27;;;;;;;11.30;8.50;;;;;;;6.44;97.47;97230.16;5058336;28;20040;-83
2024/02/12 08:13:52;;;;;;;15.10;9.70;;;;;;;6.71;97.81;97278.44;5040833;28;20039;-86
2024/02/12 08:16:19;;;;;;;12.27;8.20;;;;;;;6.54;97.43;97262.78;5078726;28;20036;-86
2024/02/12 08:18:45;;;;;;;13.32;9.93;;;;;;;6.77;98.30;97288.03;5051976;28;20046;-86
2024/02/12 08:21:10;;;;;;;12.95;10.02;;;;;;;6.64;97.29;97275.28;5086759;28;20118;-85
2024/02/12 08:23:44;;;;;;;16.40;9.75;;;;;;;6.78;97.53;97300.22;5089393;27;20378;-86
2024/02/12 08:26:10;;;;;;;16.52;9.95;;;;;;;6.70;97.15;97288.28;5071314;28;20037;-86
2024/02/12 08:28:36;;;;;;;17.20;9.30;;;;;;;6.59;97.47;97283.19;5069554;28;20381;-86
2024/02/12 08:31:04;;;;;;;17.48;11.20;;;;;;;6.70;97.31;97314.78;5061085;28;20032;-86
2024/02/12 08:33:30;;;;;;;18.08;11.68;;;;;;;6.27;98.02;97254.19;5104464;28;20472;-86
2024/02/12 08:35:55;;;;;;;18.77;12.32;;;;;;;6.40;97.97;97266.97;5054007;28;20028;-85
2024/02/12 08:38:21;;;;;;;16.35;12.10;;;;;;;6.85;97.20;97315.88;5051773;28;20035;-85
2024/02/12 08:40:50;;;;;;;21.85;13.23;;;;;;;6.74;97.11;97304.44;5106133;28;20036;-86
2024/02/12 08:43:15;;;;;;;20.90;12.77;;;;;;;6.75;97.55;97332.53;5036404;28;20067;-86
2024/02/12 08:45:44;;;;;;;22.25;13.02;;;;;;;6.61;97.96;97299.66;5052247;28;20067;-85
2024/02/12 08:48:09;;;;;;;26.10;14.90;;;;;;;6.86;97.69;97331.50;5057207;28;20024;-86
2024/02/12 08:50:36;;;;;;;26.95;16.00;;;;;;;6.78;97.03;97316.94;5068647;28;20100;-86
2024/02/12 08:53:01;;;;;;;19.60;13.07;;;;;;;6.75;97.17;97316.63;5051939;28;20028;-86
2024/02/12 08:55:27;;;;;;;24.33;14.18;;;;;;;6.83;97.18;97337.34;5045187;28;20025;-86
2024/02/12 08:57:54;;;;;;;20.33;13.30;;;;;;;6.70;97.80;97314.00;5069413;28;20111;-86
2024/02/12 09:00:21;;;;;;;26.00;16.58;;;;;;;6.93;97.53;97347.19;5060144;28;20035;-85
2024/02/12 09:02:47;;;;;;;22.67;15.07;;;;;;;6.92;97.81;97350.91;5060120;28;20104;-86
2024/02/12 09:05:12;;;;;;;19.02;13.68;;;;;;;6.56;97.61;97294.31;5070677;28;20059;-85
2024/02/12 09:07:38;;;;;;;22.35;14.95;;;;;;;6.78;98.01;97337.34;5071312;28;20563;-86
2024/02/12 09:10:06;;;;;;;30.90;18.13;;;;;;;6.58;98.33;97310.75;5066197;28;20377;-85
2024/02/12 09:12:37;;;;;;;27.95;16.48;;;;;;;6.86;98.87;97355.38;5068155;28;20094;-85
2024/02/12 09:15:10;;;;;;;26.88;16.38;;;;;;;6.93;98.20;97349.84;5052787;28;20028;-85
2024/02/12 09:17:36;;;;;;;27.85;16.40;;;;;;;7.00;98.11;97361.00;5080569;28;20040;-87
2024/02/12 09:20:02;;;;;;;30.77;18.25;;;;;;;7.10;98.07;97367.13;5071106;28;20020;-87
2024/02/12 09:22:28;;;;;;;27.05;16.90;;;;;;;7.01;97.33;97347.47;5067929;28;20020;-87
2024/02/12 09:24:53;;;;;;;25.35;15.18;;;;;;;6.97;97.53;97358.88;5066180;28;20541;-87
2024/02/12 09:27:19;;;;;;;25.25;16.13;;;;;;;7.03;96.94;97345.38;5045113;28;20132;-88
2024/02/12 09:29:47;;;;;;;29.38;18.48;;;;;;;6.82;97.08;97333.91;5031096;28;20699;-87
2024/02/12 09:32:13;;;;;;;33.40;16.98;;;;;;;7.29;96.18;97381.50;5051116;28;20071;-87
2024/02/12 09:34:39;;;;;;;31.30;18.85;;;;;;;7.09;97.40;97368.19;5048042;28;20041;-88
2024/02/12 09:37:04;;;;;;;28.52;17.75;;;;;;;7.31;97.13;97384.69;5038124;28;20476;-87
2024/02/12 09:39:31;;;;;;;32.22;19.85;;;;;;;6.72;97.15;97311.88;5038428;28;20044;-87
2024/02/12 09:41:57;;;;;;;32.60;17.85;;;;;;;7.28;97.54;97371.94;5038433;28;20029;-87
2024/02/12 09:44:23;;;;;;;30.98;19.50;;;;;;;7.42;97.14;97402.22;5056680;28;20040;-87
2024/02/12 09:46:51;;;;;;;32.00;17.83;;;;;;;7.41;96.48;97391.84;5037279;28;20032;-88
2024/02/12 09:49:17;;;;;;;31.08;17.35;;;;;;;7.17;96.36;97380.94;5035633;28;20087;-87
2024/02/12 09:51:47;;;;;;;30.98;19.42;;;;;;;7.40;96.60;97398.22;5050556;28;20483;-88
2024/02/12 09:54:12;;;;;;;30.17;17.83;;;;;;;7.36;96.44;97408.56;5054977;28;20068;-87
2024/02/12 09:56:38;;;;;;;30.42;18.65;;;;;;;6.95;96.62;97342.41;5040712;28;20068;-88
2024/02/12 09:59:04;;;;;;;29.92;20.35;;;;;;;7.22;96.27;97391.56;5053620;28;20049;-88
2024/02/12 10:01:30;;;;;;;34.47;18.83;;;;;;;7.04;95.99;97340.84;5042781;28;20032;-88
2024/02/12 10:03:56;;;;;;;32.80;19.92;;;;;;;7.25;96.19;97395.56;5034653;28;20526;-87
2024/02/12 10:06:21;;;;;;;32.53;19.88;;;;;;;7.39;95.38;97405.41;5054450;28;20102;-87
2024/02/12 10:08:47;;;;;;;36.00;22.13;;;;;;;7.54;95.29;97425.84;5057225;28;20025;-88
2024/02/12 10:11:20;;;;;;;31.08;18.92;;;;;;;7.39;94.89;97413.34;5053792;28;20071;-88
2024/02/12 10:14:29;;;;;;;31.80;19.25;;;;;;;7.53;94.39;97425.03;5054639;28;20060;-86
2024/02/12 10:17:03;;;;;;;33.90;18.92;;;;;;;7.38;95.51;97432.22;5067292;28;20048;-85
2024/02/12 10:19:29;;;;;;;34.40;20.90;;;;;;;7.50;94.87;97433.56;5049387;28;20068;-85
2024/02/12 10:23:03;;;;;;;33.00;18.75;;;;;;;7.51;94.31;97437.00;5045582;28;20492;-87
2024/02/12 10:25:29;;;;;;;30.73;20.52;;;;;;;7.06;94.46;97392.56;5031713;28;20032;-84
2024/02/12 10:28:23;;;;;;;36.38;20.27;;;;;;;7.54;94.25;97439.13;5037641;28;20035;-86
2024/02/12 10:31:11;;;;;;;37.67;22.13;;;;;;;7.41;94.37;97444.94;5068674;28;20194;-84
2024/02/12 10:33:40;;;;;;;39.63;23.35;;;;;;;7.24;93.49;97400.06;5058239;28;20025;-86
2024/02/12 10:36:06;;;;;;;35.55;21.75;;;;;;;7.60;93.52;97461.19;5028340;28;20029;-86
2024/02/12 10:38:34;;;;;;;35.10;21.00;;;;;;;7.20;93.16;97391.03;5054343;28;20044;-86
2024/02/12 10:41:13;;;;;;;37.67;21.90;;;;;;;7.56;93.36;97426.38;5042288;28;20106;-86
2024/02/12 10:43:40;;;;;;;38.45;20.88;;;;;;;7.74;93.29;97452.44;5054887;28;20562;-87
2024/02/12 10:46:06;;;;;;;41.67;25.05;;;;;;;7.44;92.35;97444.41;5053652;28;20063;-87
2024/02/12 10:48:34;;;;;;;41.53;23.63;;;;;;;7.31;92.25;97390.00;5036952;28;20461;-87
2024/02/12 10:51:02;;;;;;;34.47;21.05;;;;;;;7.65;93.20;97455.84;5057552;28;20017;-87
2024/02/12 10:53:34;;;;;;;33.17;21.50;;;;;;;7.02;92.86;97378.25;5047936;28;20078;-85
2024/02/12 10:56:00;;;;;;;36.70;21.55;;;;;;;7.60;93.41;97455.88;5034652;28;20032;-86
2024/02/12 10:58:27;;;;;;;36.55;22.25;;;;;;;7.60;93.72;97447.91;5058458;28;20124;-84
2024/02/12 11:00:56;;;;;;;41.63;22.08;;;;;;;7.48;93.04;97432.22;5025902;28;20054;-86
2024/02/12 11:03:49;;;;;;;34.13;21.00;;;;;;;7.90;92.00;97467.34;5027574;28;20035;-85
2024/02/12 11:06:18;;;;;;;36.65;21.70;;;;;;;7.62;92.31;97467.03;5036914;28;20052;-87
2024/02/12 11:09:13;;;;;;;35.83;22.50;;;;;;;7.73;92.22;97474.75;5060827;28;20110;-85
2024/02/12 11:14:46;;;;;;;35.03;19.15;;;;;;;7.51;92.28;97459.03;5059653;28;20091;-85
2024/02/12 11:17:27;;;;;;;46.67;24.55;;;;;;;7.89;92.07;97483.50;5026769;28;20032;-86
2024/02/12 11:19:54;;;;;;;38.47;21.88;;;;;;;7.84;91.48;97472.91;5058715;28;20060;-84
2024/02/12 11:22:29;;;;;;;35.47;22.63;;;;;;;8.16;91.02;97490.19;5060491;28;20032;-85
2024/02/12 11:25:15;;;;;;;35.42;23.25;;;;;;;8.01;91.27;97470.78;5062525;28;20025;-89
2024/02/12 11:27:50;;;;;;;39.50;23.00;;;;;;;8.00;90.90;97488.56;5042961;28;20041;-85
2024/02/12 11:30:16;;;;;;;35.65;20.58;;;;;;;7.99;90.48;97502.13;5064317;28;20082;-87
2024/02/12 11:32:44;;;;;;;33.17;22.17;;;;;;;7.78;91.18;97453.50;5054425;28;20028;-86
2024/02/12 11:35:18;;;;;;;41.75;21.27;;;;;;;8.14;90.31;97507.47;5032489;28;20029;-86
2024/02/12 11:37:45;;;;;;;38.17;23.23;;;;;;;8.23;90.05;97492.59;5051804;28;20395;-87
2024/02/12 11:40:16;;;;;;;42.17;21.40;;;;;;;8.00;88.42;97501.06;5054455;28;20025;-87
2024/02/12 11:42:51;;;;;;;44.92;22.50;;;;;;;8.07;88.85;97509.56;5052010;28;20044;-87
2024/02/12 11:45:20;;;;;;;37.45;21.45;;;;;;;8.32;88.75;97504.31;5051747;28;20029;-86
2024/02/12 11:47:49;;;;;;;36.72;22.10;;;;;;;8.15;87.10;97509.03;5054545;28;20043;-86
2024/02/12 11:50:24;;;;;;;31.10;20.10;;;;;;;8.04;89.20;97510.91;5036872;28;20025;-87
2024/02/12 11:52:54;;;;;;;32.60;21.27;;;;;;;7.87;88.73;97494.41;5029642;28;20025;-87
2024/02/12 11:55:20;;;;;;;33.63;20.27;;;;;;;8.02;89.37;97506.91;5034431;28;20119;-86